Latest Weather Observations for Ernabella/Pukatja

IDD60801

Issued at 3:01 pm CST Saturday 29 April 2017 (issued every 30 minutes, with the page automatically refreshed every 10 minutes)

About weather observations | Map of weather stations | Latest weather observations for NT | Other Formats
Station Details ID: 016097 Name: PUKATJA Lat: -26.26 Lon: 132.18 Height: 703.2 m
Data from the previous 72 hours. | See also: Recent months at Ernabella/Pukatja
Date/Time
CST
Temp
°C
App
Temp
°C
Dew
Point
°C
Rel
Hum
%
Delta-T
°C
Wind Press
QNH
hPa
Press
MSL
hPa
Rain since
9am
mm
Dir  Spd
km/h
Gust
km/h
Spd
kts
Gust
kts
29/03:00pm 17.8 12.8 3.7 39 6.8 E 19 26 10 14 1022.3 1019.2 0.0
29/02:30pm 19.3 14.4 4.3 37 7.4 ENE 19 28 10 15 1021.9 1018.8 0.0
29/02:00pm 17.2 12.6 3.8 41 6.5 E 17 28 9 15 1022.3 1019.2 0.0
29/01:30pm 16.7 12.0 3.4 41 6.3 SE 17 26 9 14 1022.6 1019.6 0.0
29/01:00pm 17.5 12.6 4.1 41 6.5 E 19 28 10 15 1023.2 1020.1 0.0
29/12:30pm 16.2 10.6 3.6 43 6.0 E 22 33 12 18 1023.9 1020.9 0.0
29/12:00pm 16.4 11.5 4.1 44 5.9 ENE 19 28 10 15 1024.6 1021.5 0.0
29/11:30am 16.2 10.9 4.9 47 5.5 E 22 30 12 16 1024.6 1021.5 0.0
29/11:00am 16.0 11.0 4.7 47 5.5 E 20 32 11 17 1025.4 1022.4 0.0
29/10:30am 14.2 8.9 4.8 53 4.5 E 22 28 12 15 1025.5 1022.5 0.0
29/10:00am 13.5 7.7 4.6 55 4.3 E 24 32 13 17 1025.7 1022.7 0.0
29/09:30am 13.1 7.7 4.5 56 4.1 E 22 30 12 16 1025.9 1022.9 0.0
29/09:00am 11.8 7.3 4.3 60 3.5 ENE 17 22 9 12 1025.8 1022.8 0.0
29/08:30am 11.2 8.3 4.9 65 3.0 NE 9 15 5 8 1025.8 1022.8 0.0
29/08:00am 8.0 5.6 5.3 83 1.3 NE 7 9 4 5 1025.3 1022.3 0.0
29/07:30am 7.3 4.9 4.3 81 1.4 NE 6 7 3 4 1024.9 1021.8 0.0
29/07:00am 6.3 3.8 3.8 84 1.1 NE 6 9 3 5 1024.7 1021.6 0.0
29/06:30am 6.4 4.3 3.9 84 1.1 ENE 4 9 2 5 1024.4 1021.4 0.0
29/06:00am 6.7 4.1 4.0 83 1.2 NE 7 9 4 5 1024.1 1021.1 0.0
29/05:30am 7.5 4.1 3.9 78 1.6 ENE 11 13 6 7 1024.0 1021.0 0.0
29/05:00am 7.0 4.4 4.1 82 1.3 ENE 7 9 4 5 1024.2 1021.2 0.0
29/04:30am 7.3 4.3 4.1 80 1.4 ENE 9 9 5 5 1024.2 1021.2 0.0
29/04:00am 7.9 5.2 3.9 76 1.8 E 7 11 4 6 1024.1 1021.1 0.0
29/03:30am 6.7 4.0 3.7 81 1.3 ENE 7 7 4 4 1024.2 1021.2 0.0
29/03:00am 7.2 3.8 3.8 79 1.5 ENE 11 13 6 7 1024.1 1021.1 0.0
29/02:30am 7.4 4.3 3.5 76 1.7 ENE 9 11 5 6 1024.7 1021.6 0.0
29/02:00am 8.1 4.6 3.4 72 2.1 E 11 13 6 7 1024.9 1021.8 0.0
29/01:30am 7.4 4.2 3.1 74 1.9 NE 9 13 5 7 1025.1 1022.1 0.0
29/01:00am 8.2 4.6 2.9 69 2.3 ENE 11 13 6 7 1025.2 1022.2 0.0
29/12:30am 8.7 5.1 2.9 67 2.6 ENE 11 13 6 7 1025.0 1021.9 0.0
29/12:00am 9.4 5.4 2.7 63 3.0 ENE 13 19 7 10 1025.2 1022.2 0.0
 
Date/Time
CST
Temp
°C
App
Temp
°C
Dew
Point
°C
Rel
Hum
%
Delta-T
°C
Wind Press
QNH
hPa
Press
MSL
hPa
Rain since
9am
mm
Dir  Spd
km/h
Gust
km/h
Spd
kts
Gust
kts
28/11:30pm 10.0 6.3 2.6 60 3.3 ENE 11 15 6 8 1025.2 1022.2 0.0
28/11:00pm 12.1 6.9 2.3 51 4.4 E 19 24 10 13 1025.3 1022.3 0.0
28/10:30pm 12.4 8.3 2.3 50 4.5 E 13 17 7 9 1025.6 1022.6 0.0
28/10:00pm 13.2 7.8 2.4 48 4.9 SE 20 30 11 16 1025.8 1022.8 0.0
28/09:30pm 13.4 8.6 2.6 48 4.9 SE 17 22 9 12 1025.8 1022.8 0.0
28/09:00pm 13.1 9.0 2.4 48 4.8 ESE 13 19 7 10 1025.9 1022.9 0.0
28/08:30pm 13.1 9.4 2.4 48 4.8 ESE 11 15 6 8 1025.6 1022.6 0.0
28/08:00pm 13.3 9.2 2.2 47 5.0 ESE 13 17 7 9 1025.6 1022.6 0.0
28/07:30pm 13.0 9.3 2.3 48 4.8 E 11 13 6 7 1025.2 1022.2 0.0
28/07:00pm 14.1 9.9 1.7 43 5.6 E 13 19 7 10 1025.0 1021.9 0.0
28/06:30pm 15.1 10.8 1.3 39 6.2 ESE 13 20 7 11 1024.8 1021.7 0.0
28/06:00pm 15.7 10.3 1.1 37 6.6 ESE 19 24 10 13 1024.3 1021.3 0.0
28/05:30pm 16.2 10.6 1.1 36 6.8 SE 20 26 11 14 1024.3 1021.3 0.0
28/05:00pm 16.9 11.3 1.0 34 7.3 ESE 20 28 11 15 1024.2 1021.2 0.0
28/04:30pm 17.4 11.4 1.0 33 7.5 ESE 22 32 12 17 1023.9 1020.9 0.0
28/04:00pm 18.7 13.4 1.7 32 8.0 ESE 19 28 10 15 1024.0 1021.0 0.0
28/03:30pm 18.5 12.6 1.9 33 7.8 E 22 35 12 19 1023.8 1020.8 0.0
28/03:00pm 18.0 12.6 1.5 33 7.6 ENE 19 26 10 14 1024.2 1021.2 0.0
28/02:30pm 17.7 12.7 1.2 33 7.6 E 17 26 9 14 1024.6 1021.5 0.0
28/02:00pm 17.9 12.5 1.4 33 7.7 E 19 30 10 16 1025.0 1021.9 0.0
28/01:30pm 17.7 12.2 2.1 35 7.3 E 20 30 11 16 1025.2 1022.2 0.0
28/01:00pm 17.2 11.8 2.4 37 7.0 ENE 20 30 11 16 1026.3 1023.2 0.0
28/12:30pm 15.3 10.0 2.1 41 6.1 ENE 19 26 10 14 1026.7 1023.7 0.0
28/12:00pm 15.5 9.3 2.3 41 6.1 ENE 24 33 13 18 1026.8 1023.8 0.0
28/11:30am 14.8 9.0 2.4 43 5.7 E 22 33 12 18 1027.4 1024.4 0.0
28/11:00am 15.3 9.6 3.1 44 5.7 ENE 22 33 12 18 1027.8 1024.8 0.0
28/10:30am 14.5 8.4 2.7 45 5.4 ENE 24 37 13 20 1027.9 1024.9 0.0
28/10:00am 14.4 9.1 3.2 47 5.2 ENE 20 30 11 16 1028.1 1025.1 0.0
28/09:30am 12.8 7.2 3.2 52 4.4 ENE 22 30 12 16 1028.1 1025.1 0.0
28/09:00am 12.0 6.0 3.3 55 4.0 ENE 24 32 13 17 1027.9 1024.9 0.0
28/08:30am 10.7 5.4 2.8 58 3.5 ENE 20 28 11 15 1027.6 1024.5 0.0
28/08:00am 8.0 4.7 2.5 68 2.4 ENE 9 13 5 7 1027.7 1024.7 0.0
28/07:30am 6.9 4.2 2.8 75 1.8 NE 6 9 3 5 1027.4 1024.4 0.0
28/07:00am 5.7 3.0 2.4 79 1.4 NE 6 7 3 4 1027.2 1024.2 0.0
28/06:30am 6.1 2.7 1.8 74 1.8 NE 9 11 5 6 1026.8 1023.8 0.0
28/06:00am 7.2 3.0 1.9 69 2.2 ENE 13 17 7 9 1026.7 1023.7 0.0
28/05:30am 8.5 3.0 1.6 62 2.9 E 20 28 11 15 1026.6 1023.6 0.0
28/05:00am 9.2 3.3 1.6 59 3.3 E 22 30 12 16 1026.2 1023.1 0.0
28/04:30am 9.6 3.7 1.5 57 3.5 E 22 32 12 17 1026.1 1023.0 0.0
28/04:00am 10.0 4.5 1.6 56 3.7 E 20 30 11 16 1026.4 1023.4 0.0
28/03:30am 10.1 4.7 1.5 55 3.7 ESE 19 30 10 16 1026.4 1023.4 0.0
28/03:00am 10.8 4.9 1.6 53 4.0 ESE 22 32 12 17 1026.4 1023.4 0.0
28/02:30am 10.8 5.2 1.4 52 4.1 ESE 20 26 11 14 1026.7 1023.7 0.0
28/02:00am 11.3 5.8 1.8 52 4.2 ESE 20 30 11 16 1026.9 1023.9 0.0
28/01:30am 11.2 6.3 1.7 52 4.2 ESE 17 26 9 14 1026.9 1023.9 0.0
28/01:00am 11.5 6.6 1.7 51 4.3 ESE 17 24 9 13 1026.8 1023.8 0.0
28/12:30am 11.9 6.9 1.5 49 4.6 ESE 17 24 9 13 1026.8 1023.8 0.0
28/12:00am 11.9 6.9 1.5 49 4.6 ESE 17 20 9 11 1026.9 1023.9 0.0
 
Date/Time
CST
Temp
°C
App
Temp
°C
Dew
Point
°C
Rel
Hum
%
Delta-T
°C
Wind Press
QNH
hPa
Press
MSL
hPa
Rain since
9am
mm
Dir  Spd
km/h
Gust
km/h
Spd
kts
Gust
kts
27/11:30pm 12.7 6.8 1.4 46 5.0 ESE 22 30 12 16 1027.0 1024.0 0.0
27/11:00pm 13.0 7.1 1.4 45 5.2 ESE 22 30 12 16 1027.2 1024.2 0.0
27/10:30pm 13.3 7.3 1.3 44 5.3 ESE 22 30 12 16 1027.1 1024.1 0.0
27/10:00pm 13.3 8.3 1.3 44 5.3 ESE 17 24 9 13 1027.1 1024.1 0.0
27/09:30pm 13.7 8.1 1.4 43 5.5 ESE 20 30 11 16 1027.0 1024.0 0.0
27/09:00pm 13.6 8.6 1.3 43 5.5 ESE 17 24 9 13 1027.0 1024.0 0.0
27/08:30pm 13.7 9.1 1.7 44 5.4 ESE 15 20 8 11 1026.8 1023.8 0.0
27/08:00pm 14.1 9.5 1.7 43 5.6 ESE 15 22 8 12 1026.8 1023.8 0.0
27/07:30pm 14.1 9.5 1.7 43 5.6 ESE 15 19 8 10 1026.5 1023.5 0.0
27/07:00pm 14.6 9.6 1.2 40 6.0 ESE 17 20 9 11 1026.3 1023.2 0.0
27/06:30pm 14.8 9.8 1.3 40 6.1 ESE 17 22 9 12 1025.8 1022.8 0.0
27/06:00pm 15.4 9.8 1.2 38 6.4 ESE 20 28 11 15 1025.9 1022.9 0.0
27/05:30pm 15.8 11.1 1.2 37 6.6 ESE 15 22 8 12 1026.1 1023.0 0.0
27/05:00pm 16.3 10.9 1.2 36 6.9 ESE 19 28 10 15 1025.9 1022.9 0.0
27/04:30pm 16.7 11.1 1.2 35 7.1 ESE 20 30 11 16 1025.8 1022.8 0.0
27/04:00pm 16.7 10.8 2.0 37 6.8 ESE 22 35 12 19 1025.6 1022.6 0.0
27/03:30pm 17.1 11.0 2.7 38 6.8 ESE 24 32 13 17 1025.6 1022.6 0.0
27/03:00pm 17.1 11.3 2.3 37 6.9 ESE 22 30 12 16 1025.5 1022.5 0.0
27/02:30pm 17.1 11.7 2.7 38 6.8 ESE 20 28 11 15 1025.7 1022.7 0.0
27/02:00pm 16.7 11.5 2.3 38 6.7 SE 19 28 10 15 1026.1 1023.0 0.0
27/01:30pm 16.7 11.5 3.4 41 6.3 ESE 20 30 11 16 1026.2 1023.1 0.0
27/01:00pm 16.9 11.3 3.2 40 6.5 ESE 22 32 12 17 1026.4 1023.4 0.0
27/12:30pm 15.6 10.5 4.0 46 5.5 ESE 20 30 11 16 1026.9 1023.9 0.0
27/12:00pm 15.3 9.8 4.1 47 5.4 ESE 22 30 12 16 1027.4 1024.4 0.0
27/11:30am 15.0 10.0 4.7 50 5.0 ESE 20 28 11 15 1028.0 1025.0 0.0
27/11:00am 15.0 9.7 5.0 51 4.9 ESE 22 32 12 17 1028.3 1025.3 0.0
27/10:30am 13.9 8.2 4.8 54 4.4 ESE 24 32 13 17 1028.4 1025.4 0.0
27/10:00am 13.9 8.6 4.8 54 4.4 ESE 22 30 12 16 1028.6 1025.6 0.0
27/09:30am 13.4 8.2 5.3 58 3.9 ESE 22 28 12 15 1028.4 1025.4 0.0
27/09:00am 12.4 7.6 4.9 60 3.6 ESE 19 28 10 15 1028.2 1025.2 0.0
27/08:30am 11.2 7.6 4.9 65 3.0 SE 13 19 7 10 1027.9 1024.9 0.0
27/08:00am 9.4 6.6 5.0 74 2.1 ESE 9 15 5 8 1027.4 1024.4 0.0
27/07:30am 8.7 6.4 4.7 76 1.8 ENE 6 7 3 4 1027.1 1024.1 0.0
27/07:00am 8.4 5.5 4.6 77 1.7 SE 9 17 5 9 1027.1 1024.1 0.0
27/06:30am 9.1 5.8 4.7 74 2.0 SE 11 17 6 9 1026.8 1023.8 0.0
27/06:00am 9.4 6.1 4.6 72 2.2 SE 11 15 6 8 1026.4 1023.4 0.0
27/05:30am 9.4 6.1 4.8 73 2.1 SE 11 17 6 9 1026.4 1023.4 0.0
27/05:00am 9.1 6.2 4.5 73 2.1 SE 9 11 5 6 1026.3 1023.2 0.0
27/04:30am 9.7 6.1 4.9 72 2.2 SE 13 17 7 9 1026.2 1023.1 0.0
27/04:00am 10.0 6.7 4.6 69 2.5 SE 11 17 6 9 1026.3 1023.2 0.0
27/03:30am 10.2 6.5 4.4 67 2.7 SE 13 19 7 10 1026.5 1023.5 0.0
27/03:00am 10.9 6.4 4.1 63 3.1 ESE 17 24 9 13 1026.6 1023.6 0.0
27/02:30am 10.9 6.4 4.1 63 3.1 SE 17 24 9 13 1026.9 1023.9 0.0
27/02:00am 11.2 6.7 4.0 61 3.3 SE 17 26 9 14 1027.0 1024.0 0.0
27/01:30am 11.0 6.5 4.2 63 3.1 SE 17 22 9 12 1027.2 1024.2 0.0
27/01:00am 11.2 7.0 4.0 61 3.3 SE 15 22 8 12 1027.4 1024.4 0.0
27/12:30am 11.2 7.0 4.0 61 3.3 SE 15 22 8 12 1027.2 1024.2 0.0
27/12:00am 11.5 7.7 4.0 60 3.5 SE 13 20 7 11 1027.1 1024.1 0.0
 
Date/Time
CST
Temp
°C
App
Temp
°C
Dew
Point
°C
Rel
Hum
%
Delta-T
°C
Wind Press
QNH
hPa
Press
MSL
hPa
Rain since
9am
mm
Dir  Spd
km/h
Gust
km/h
Spd
kts
Gust
kts
26/11:30pm 11.4 7.6 3.9 60 3.5 ESE 13 24 7 13 1027.1 1024.1 0.0
26/11:00pm 11.6 8.1 3.4 57 3.8 SE 11 17 6 9 1027.6 1024.5 0.0
26/10:30pm 12.7 8.4 3.1 52 4.4 SE 15 20 8 11 1027.2 1024.2 0.0
26/10:00pm 13.0 8.3 3.1 51 4.6 SSE 17 24 9 13 1027.1 1024.1 0.0
26/09:30pm 13.2 8.9 3.3 51 4.6 SSE 15 19 8 10 1026.8 1023.8 0.0
26/09:00pm 13.3 9.6 4.5 55 4.2 SE 13 15 7 8 1026.4 1023.4 0.0
26/08:30pm 13.8 10.6 4.9 55 4.3 SE 11 20 6 11 1026.1 1023.0 0.0
26/08:00pm 13.9 10.8 5.5 57 4.1 SSE 11 13 6 7 1025.4 1022.4 0.0
26/07:30pm 14.6 11.5 5.4 54 4.5 SSE 11 19 6 10 1024.9 1021.8 0.0
26/07:00pm 14.8 11.3 5.3 53 4.7 SSE 13 20 7 11 1024.4 1021.4 0.0
26/06:30pm 15.6 11.4 5.8 52 4.9 SSE 17 24 9 13 1023.9 1020.9 0.0
26/06:00pm 16.3 11.8 5.9 50 5.2 S 19 28 10 15 1023.7 1020.6 0.0
26/05:30pm 17.1 12.6 6.0 48 5.6 SSE 19 24 10 13 1023.6 1020.5 0.0
26/05:00pm 18.0 13.5 6.2 46 6.0 SE 19 28 10 15 1023.6 1020.5 0.0
26/04:30pm 18.4 13.4 6.6 46 6.1 S 22 30 12 16 1023.4 1020.3 0.0
26/04:00pm 19.1 13.6 5.9 42 6.8 S 24 35 13 19 1023.3 1020.2 0.0
26/03:30pm 18.9 13.9 6.4 44 6.4 SSE 22 35 12 19 1023.1 1020.0 0.0

Other Formats:

Comma delimited format used in spreadsheet applications
http://www.bom.gov.au/fwo/IDD60801/IDD60801.94474.axf

JavaScript Object Notation format (JSON) in row-major order
http://www.bom.gov.au/fwo/IDD60801/IDD60801.94474.json